sensor_id;sensor_type;location;lat;lon;timestamp;P1;durP1;ratioP1;P2;durP2;ratioP2
30127;SDS011;16942;53.196;6.592;2023-04-24T00:00:05;5.40;;;3.13;;
30127;SDS011;16942;53.196;6.592;2023-04-24T00:02:31;4.57;;;3.80;;
30127;SDS011;16942;53.196;6.592;2023-04-24T00:04:57;5.07;;;3.97;;
30127;SDS011;16942;53.196;6.592;2023-04-24T00:07:28;9.03;;;4.63;;
30127;SDS011;16942;53.196;6.592;2023-04-24T00:09:54;5.30;;;4.30;;
30127;SDS011;16942;53.196;6.592;2023-04-24T00:12:20;7.30;;;5.90;;
30127;SDS011;16942;53.196;6.592;2023-04-24T00:14:46;5.87;;;5.27;;
30127;SDS011;16942;53.196;6.592;2023-04-24T00:17:12;6.70;;;5.80;;
30127;SDS011;16942;53.196;6.592;2023-04-24T00:19:38;5.30;;;4.80;;
30127;SDS011;16942;53.196;6.592;2023-04-24T00:22:04;6.93;;;5.10;;
30127;SDS011;16942;53.196;6.592;2023-04-24T00:24:30;5.63;;;4.67;;
30127;SDS011;16942;53.196;6.592;2023-04-24T00:26:56;8.73;;;4.50;;
30127;SDS011;16942;53.196;6.592;2023-04-24T00:29:22;5.87;;;3.40;;
30127;SDS011;16942;53.196;6.592;2023-04-24T00:31:48;3.87;;;3.10;;
30127;SDS011;16942;53.196;6.592;2023-04-24T00:34:14;2.67;;;2.13;;
30127;SDS011;16942;53.196;6.592;2023-04-24T00:36:41;1.87;;;1.77;;
30127;SDS011;16942;53.196;6.592;2023-04-24T00:39:07;1.97;;;1.70;;
30127;SDS011;16942;53.196;6.592;2023-04-24T00:41:33;1.90;;;1.40;;
30127;SDS011;16942;53.196;6.592;2023-04-24T00:43:59;1.80;;;1.70;;
30127;SDS011;16942;53.196;6.592;2023-04-24T00:46:25;1.60;;;1.50;;
30127;SDS011;16942;53.196;6.592;2023-04-24T00:48:52;1.27;;;1.17;;
30127;SDS011;16942;53.196;6.592;2023-04-24T00:51:18;2.40;;;1.37;;
30127;SDS011;16942;53.196;6.592;2023-04-24T00:53:44;2.93;;;1.37;;
30127;SDS011;16942;53.196;6.592;2023-04-24T00:56:10;1.27;;;1.17;;
30127;SDS011;16942;53.196;6.592;2023-04-24T00:58:37;1.30;;;1.20;;
30127;SDS011;16942;53.196;6.592;2023-04-24T01:01:03;1.10;;;1.00;;
30127;SDS011;16942;53.196;6.592;2023-04-24T01:03:31;0.90;;;0.90;;
30127;SDS011;16942;53.196;6.592;2023-04-24T01:05:57;1.30;;;1.20;;
30127;SDS011;16942;53.196;6.592;2023-04-24T01:08:23;1.10;;;0.97;;
30127;SDS011;16942;53.196;6.592;2023-04-24T01:10:53;2.13;;;0.93;;
30127;SDS011;16942;53.196;6.592;2023-04-24T01:13:19;0.97;;;0.97;;
30127;SDS011;16942;53.196;6.592;2023-04-24T01:15:46;1.10;;;1.00;;
30127;SDS011;16942;53.196;6.592;2023-04-24T01:18:12;0.87;;;0.87;;
30127;SDS011;16942;53.196;6.592;2023-04-24T01:20:41;2.97;;;1.17;;
30127;SDS011;16942;53.196;6.592;2023-04-24T01:23:09;1.07;;;1.00;;
30127;SDS011;16942;53.196;6.592;2023-04-24T01:25:35;1.10;;;1.00;;
30127;SDS011;16942;53.196;6.592;2023-04-24T01:28:01;1.17;;;1.07;;
30127;SDS011;16942;53.196;6.592;2023-04-24T01:30:29;1.73;;;1.20;;
30127;SDS011;16942;53.196;6.592;2023-04-24T01:32:56;1.40;;;1.30;;
30127;SDS011;16942;53.196;6.592;2023-04-24T01:35:22;1.37;;;1.27;;
30127;SDS011;16942;53.196;6.592;2023-04-24T01:37:48;1.47;;;1.37;;
30127;SDS011;16942;53.196;6.592;2023-04-24T01:40:14;1.40;;;1.20;;
30127;SDS011;16942;53.196;6.592;2023-04-24T01:42:40;1.13;;;1.10;;
30127;SDS011;16942;53.196;6.592;2023-04-24T01:45:07;1.30;;;1.30;;
30127;SDS011;16942;53.196;6.592;2023-04-24T01:47:35;1.47;;;1.37;;
30127;SDS011;16942;53.196;6.592;2023-04-24T01:50:01;1.30;;;1.20;;
30127;SDS011;16942;53.196;6.592;2023-04-24T01:52:27;1.93;;;1.80;;
30127;SDS011;16942;53.196;6.592;2023-04-24T01:54:56;1.63;;;1.53;;
30127;SDS011;16942;53.196;6.592;2023-04-24T01:57:22;1.63;;;1.53;;
30127;SDS011;16942;53.196;6.592;2023-04-24T01:59:48;1.80;;;1.70;;
30127;SDS011;16942;53.196;6.592;2023-04-24T02:02:14;1.63;;;1.53;;
30127;SDS011;16942;53.196;6.592;2023-04-24T02:04:40;2.80;;;2.00;;
30127;SDS011;16942;53.196;6.592;2023-04-24T02:07:06;2.40;;;2.00;;
30127;SDS011;16942;53.196;6.592;2023-04-24T02:09:32;2.17;;;2.07;;
30127;SDS011;16942;53.196;6.592;2023-04-24T02:11:58;2.30;;;2.10;;
30127;SDS011;16942;53.196;6.592;2023-04-24T02:14:25;2.57;;;2.37;;
30127;SDS011;16942;53.196;6.592;2023-04-24T02:16:51;2.60;;;2.40;;
30127;SDS011;16942;53.196;6.592;2023-04-24T02:19:18;2.97;;;2.70;;
30127;SDS011;16942;53.196;6.592;2023-04-24T02:21:44;3.97;;;2.57;;
30127;SDS011;16942;53.196;6.592;2023-04-24T02:24:10;3.40;;;3.10;;
30127;SDS011;16942;53.196;6.592;2023-04-24T02:26:36;3.07;;;2.83;;
30127;SDS011;16942;53.196;6.592;2023-04-24T02:29:02;3.30;;;3.00;;
30127;SDS011;16942;53.196;6.592;2023-04-24T02:31:28;5.07;;;3.50;;
30127;SDS011;16942;53.196;6.592;2023-04-24T02:33:54;3.70;;;3.40;;
30127;SDS011;16942;53.196;6.592;2023-04-24T02:36:20;7.67;;;3.40;;
30127;SDS011;16942;53.196;6.592;2023-04-24T02:38:46;3.87;;;3.47;;
30127;SDS011;16942;53.196;6.592;2023-04-24T02:41:12;4.77;;;3.40;;
30127;SDS011;16942;53.196;6.592;2023-04-24T02:43:38;5.33;;;3.93;;
30127;SDS011;16942;53.196;6.592;2023-04-24T02:46:04;4.13;;;3.73;;
30127;SDS011;16942;53.196;6.592;2023-04-24T02:48:30;4.47;;;4.07;;
30127;SDS011;16942;53.196;6.592;2023-04-24T02:50:56;5.03;;;4.60;;
30127;SDS011;16942;53.196;6.592;2023-04-24T02:53:22;4.87;;;4.37;;
30127;SDS011;16942;53.196;6.592;2023-04-24T02:55:48;4.97;;;4.23;;
30127;SDS011;16942;53.196;6.592;2023-04-24T02:58:14;5.10;;;4.60;;
30127;SDS011;16942;53.196;6.592;2023-04-24T03:00:41;5.07;;;4.57;;
30127;SDS011;16942;53.196;6.592;2023-04-24T03:03:08;5.00;;;4.53;;
30127;SDS011;16942;53.196;6.592;2023-04-24T03:05:34;6.43;;;4.43;;
30127;SDS011;16942;53.196;6.592;2023-04-24T03:08:00;5.10;;;4.37;;
30127;SDS011;16942;53.196;6.592;2023-04-24T03:10:26;4.60;;;4.20;;
30127;SDS011;16942;53.196;6.592;2023-04-24T03:12:52;5.73;;;5.13;;
30127;SDS011;16942;53.196;6.592;2023-04-24T03:15:19;5.57;;;5.00;;
30127;SDS011;16942;53.196;6.592;2023-04-24T03:17:46;5.20;;;4.70;;
30127;SDS011;16942;53.196;6.592;2023-04-24T03:20:12;5.90;;;5.23;;
30127;SDS011;16942;53.196;6.592;2023-04-24T03:22:37;5.57;;;4.97;;
30127;SDS011;16942;53.196;6.592;2023-04-24T03:25:04;6.10;;;5.30;;
30127;SDS011;16942;53.196;6.592;2023-04-24T03:27:30;6.13;;;5.13;;
30127;SDS011;16942;53.196;6.592;2023-04-24T03:29:56;7.97;;;5.70;;
30127;SDS011;16942;53.196;6.592;2023-04-24T03:32:22;8.03;;;6.17;;
30127;SDS011;16942;53.196;6.592;2023-04-24T03:34:48;8.00;;;6.67;;
30127;SDS011;16942;53.196;6.592;2023-04-24T03:37:15;8.23;;;6.83;;
30127;SDS011;16942;53.196;6.592;2023-04-24T03:39:41;8.13;;;7.23;;
30127;SDS011;16942;53.196;6.592;2023-04-24T03:42:07;8.33;;;7.27;;
30127;SDS011;16942;53.196;6.592;2023-04-24T03:44:33;7.80;;;7.00;;
30127;SDS011;16942;53.196;6.592;2023-04-24T03:47:00;12.17;;;7.37;;
30127;SDS011;16942;53.196;6.592;2023-04-24T03:49:26;14.43;;;8.57;;
30127;SDS011;16942;53.196;6.592;2023-04-24T03:51:52;12.30;;;9.47;;
30127;SDS011;16942;53.196;6.592;2023-04-24T03:54:18;10.20;;;9.10;;
30127;SDS011;16942;53.196;6.592;2023-04-24T03:56:44;10.00;;;8.93;;
30127;SDS011;16942;53.196;6.592;2023-04-24T03:59:10;11.53;;;8.70;;
30127;SDS011;16942;53.196;6.592;2023-04-24T04:01:36;14.27;;;9.73;;
30127;SDS011;16942;53.196;6.592;2023-04-24T04:04:03;10.30;;;9.17;;
30127;SDS011;16942;53.196;6.592;2023-04-24T04:06:31;10.40;;;8.40;;
30127;SDS011;16942;53.196;6.592;2023-04-24T04:08:58;10.60;;;9.00;;
30127;SDS011;16942;53.196;6.592;2023-04-24T04:11:24;9.50;;;8.23;;
30127;SDS011;16942;53.196;6.592;2023-04-24T04:13:50;8.93;;;8.03;;
30127;SDS011;16942;53.196;6.592;2023-04-24T04:16:17;9.77;;;8.30;;
30127;SDS011;16942;53.196;6.592;2023-04-24T04:18:43;9.83;;;8.47;;
30127;SDS011;16942;53.196;6.592;2023-04-24T04:21:09;10.60;;;8.60;;
30127;SDS011;16942;53.196;6.592;2023-04-24T04:23:35;8.47;;;7.63;;
30127;SDS011;16942;53.196;6.592;2023-04-24T04:26:02;9.00;;;7.20;;
30127;SDS011;16942;53.196;6.592;2023-04-24T04:28:28;8.10;;;7.30;;
30127;SDS011;16942;53.196;6.592;2023-04-24T04:30:55;8.87;;;7.47;;
30127;SDS011;16942;53.196;6.592;2023-04-24T04:33:22;8.80;;;7.90;;
30127;SDS011;16942;53.196;6.592;2023-04-24T04:35:49;7.80;;;7.00;;
30127;SDS011;16942;53.196;6.592;2023-04-24T04:38:17;7.80;;;7.10;;
30127;SDS011;16942;53.196;6.592;2023-04-24T04:40:43;7.53;;;6.20;;
30127;SDS011;16942;53.196;6.592;2023-04-24T04:43:09;7.57;;;6.27;;
30127;SDS011;16942;53.196;6.592;2023-04-24T04:45:36;6.50;;;5.70;;
30127;SDS011;16942;53.196;6.592;2023-04-24T04:48:03;6.20;;;5.60;;
30127;SDS011;16942;53.196;6.592;2023-04-24T04:50:32;8.83;;;5.83;;
30127;SDS011;16942;53.196;6.592;2023-04-24T04:52:58;7.47;;;6.00;;
30127;SDS011;16942;53.196;6.592;2023-04-24T04:55:24;6.80;;;5.57;;
30127;SDS011;16942;53.196;6.592;2023-04-24T04:57:50;6.03;;;5.43;;
30127;SDS011;16942;53.196;6.592;2023-04-24T05:00:17;8.20;;;5.10;;
30127;SDS011;16942;53.196;6.592;2023-04-24T05:02:43;6.47;;;5.23;;
30127;SDS011;16942;53.196;6.592;2023-04-24T05:05:09;5.70;;;5.20;;
30127;SDS011;16942;53.196;6.592;2023-04-24T05:07:35;5.67;;;5.03;;
30127;SDS011;16942;53.196;6.592;2023-04-24T05:10:01;6.07;;;4.93;;
30127;SDS011;16942;53.196;6.592;2023-04-24T05:12:27;7.80;;;5.03;;
30127;SDS011;16942;53.196;6.592;2023-04-24T05:14:53;4.97;;;4.47;;
30127;SDS011;16942;53.196;6.592;2023-04-24T05:17:20;4.93;;;4.43;;
30127;SDS011;16942;53.196;6.592;2023-04-24T05:19:46;5.07;;;4.30;;
30127;SDS011;16942;53.196;6.592;2023-04-24T05:22:13;4.20;;;3.80;;
30127;SDS011;16942;53.196;6.592;2023-04-24T05:24:39;3.27;;;2.83;;
30127;SDS011;16942;53.196;6.592;2023-04-24T05:27:05;4.27;;;3.33;;
30127;SDS011;16942;53.196;6.592;2023-04-24T05:29:32;3.60;;;3.30;;
30127;SDS011;16942;53.196;6.592;2023-04-24T05:31:58;3.83;;;3.43;;
30127;SDS011;16942;53.196;6.592;2023-04-24T05:34:24;3.60;;;2.97;;
30127;SDS011;16942;53.196;6.592;2023-04-24T05:36:50;3.83;;;3.20;;
30127;SDS011;16942;53.196;6.592;2023-04-24T05:39:16;4.27;;;3.27;;
30127;SDS011;16942;53.196;6.592;2023-04-24T05:41:42;3.50;;;2.80;;
30127;SDS011;16942;53.196;6.592;2023-04-24T05:44:08;3.97;;;3.50;;
30127;SDS011;16942;53.196;6.592;2023-04-24T05:46:34;5.20;;;3.60;;
30127;SDS011;16942;53.196;6.592;2023-04-24T05:49:01;3.50;;;3.00;;
30127;SDS011;16942;53.196;6.592;2023-04-24T05:51:27;3.17;;;2.87;;
30127;SDS011;16942;53.196;6.592;2023-04-24T05:53:53;3.23;;;2.63;;
30127;SDS011;16942;53.196;6.592;2023-04-24T05:56:19;3.07;;;2.60;;
30127;SDS011;16942;53.196;6.592;2023-04-24T05:58:46;2.77;;;2.57;;
30127;SDS011;16942;53.196;6.592;2023-04-24T06:01:12;3.43;;;2.60;;
30127;SDS011;16942;53.196;6.592;2023-04-24T06:03:41;3.97;;;2.57;;
30127;SDS011;16942;53.196;6.592;2023-04-24T06:06:08;4.93;;;2.93;;
30127;SDS011;16942;53.196;6.592;2023-04-24T06:08:34;3.57;;;2.53;;
30127;SDS011;16942;53.196;6.592;2023-04-24T06:11:01;4.97;;;3.63;;
30127;SDS011;16942;53.196;6.592;2023-04-24T06:13:27;5.13;;;3.97;;
30127;SDS011;16942;53.196;6.592;2023-04-24T06:15:53;3.73;;;3.00;;
30127;SDS011;16942;53.196;6.592;2023-04-24T06:18:19;4.03;;;2.90;;
30127;SDS011;16942;53.196;6.592;2023-04-24T06:20:46;5.57;;;3.30;;
30127;SDS011;16942;53.196;6.592;2023-04-24T06:23:12;6.07;;;3.37;;
30127;SDS011;16942;53.196;6.592;2023-04-24T06:25:38;4.43;;;3.43;;
30127;SDS011;16942;53.196;6.592;2023-04-24T06:28:04;5.20;;;4.23;;
30127;SDS011;16942;53.196;6.592;2023-04-24T06:30:30;4.80;;;4.10;;
30127;SDS011;16942;53.196;6.592;2023-04-24T06:32:57;6.30;;;4.27;;
30127;SDS011;16942;53.196;6.592;2023-04-24T06:35:23;8.40;;;4.77;;
30127;SDS011;16942;53.196;6.592;2023-04-24T06:37:49;7.10;;;5.17;;
30127;SDS011;16942;53.196;6.592;2023-04-24T06:40:15;8.43;;;5.00;;
30127;SDS011;16942;53.196;6.592;2023-04-24T06:42:43;9.53;;;4.77;;
30127;SDS011;16942;53.196;6.592;2023-04-24T06:45:09;5.57;;;4.87;;
30127;SDS011;16942;53.196;6.592;2023-04-24T06:47:36;8.93;;;4.67;;
30127;SDS011;16942;53.196;6.592;2023-04-24T06:50:03;6.77;;;4.17;;
30127;SDS011;16942;53.196;6.592;2023-04-24T06:52:29;9.17;;;4.90;;
30127;SDS011;16942;53.196;6.592;2023-04-24T06:55:01;9.37;;;4.43;;
30127;SDS011;16942;53.196;6.592;2023-04-24T06:57:27;7.37;;;5.07;;
30127;SDS011;16942;53.196;6.592;2023-04-24T06:59:53;9.67;;;5.30;;
30127;SDS011;16942;53.196;6.592;2023-04-24T07:02:19;5.57;;;4.07;;
30127;SDS011;16942;53.196;6.592;2023-04-24T07:04:45;5.27;;;3.50;;
30127;SDS011;16942;53.196;6.592;2023-04-24T07:07:12;4.87;;;3.00;;
30127;SDS011;16942;53.196;6.592;2023-04-24T07:09:39;4.70;;;2.77;;
30127;SDS011;16942;53.196;6.592;2023-04-24T07:12:09;4.47;;;2.57;;
30127;SDS011;16942;53.196;6.592;2023-04-24T07:14:35;5.47;;;2.63;;
30127;SDS011;16942;53.196;6.592;2023-04-24T07:17:02;3.33;;;2.33;;
30127;SDS011;16942;53.196;6.592;2023-04-24T07:19:28;3.27;;;1.60;;
30127;SDS011;16942;53.196;6.592;2023-04-24T07:21:54;3.40;;;1.67;;
30127;SDS011;16942;53.196;6.592;2023-04-24T07:24:20;4.07;;;1.93;;
30127;SDS011;16942;53.196;6.592;2023-04-24T07:26:46;2.50;;;1.53;;
30127;SDS011;16942;53.196;6.592;2023-04-24T07:29:12;4.70;;;1.97;;
30127;SDS011;16942;53.196;6.592;2023-04-24T07:31:39;2.77;;;1.67;;
30127;SDS011;16942;53.196;6.592;2023-04-24T07:34:06;5.27;;;2.30;;
30127;SDS011;16942;53.196;6.592;2023-04-24T07:36:32;6.93;;;3.07;;
30127;SDS011;16942;53.196;6.592;2023-04-24T07:38:58;4.97;;;2.03;;
30127;SDS011;16942;53.196;6.592;2023-04-24T07:41:24;4.47;;;2.03;;
30127;SDS011;16942;53.196;6.592;2023-04-24T07:43:50;4.80;;;2.50;;
30127;SDS011;16942;53.196;6.592;2023-04-24T07:46:17;3.00;;;2.37;;
30127;SDS011;16942;53.196;6.592;2023-04-24T07:48:43;4.67;;;2.13;;
30127;SDS011;16942;53.196;6.592;2023-04-24T07:51:09;6.27;;;3.77;;
30127;SDS011;16942;53.196;6.592;2023-04-24T07:53:38;3.10;;;1.90;;
30127;SDS011;16942;53.196;6.592;2023-04-24T07:56:04;5.90;;;2.40;;
30127;SDS011;16942;53.196;6.592;2023-04-24T07:58:30;4.70;;;2.53;;
30127;SDS011;16942;53.196;6.592;2023-04-24T08:00:56;8.63;;;2.90;;
30127;SDS011;16942;53.196;6.592;2023-04-24T08:03:22;5.53;;;2.70;;
30127;SDS011;16942;53.196;6.592;2023-04-24T08:05:49;7.57;;;3.33;;
30127;SDS011;16942;53.196;6.592;2023-04-24T08:08:16;6.13;;;3.57;;
30127;SDS011;16942;53.196;6.592;2023-04-24T08:10:42;7.70;;;4.30;;
30127;SDS011;16942;53.196;6.592;2023-04-24T08:13:08;13.70;;;5.90;;
30127;SDS011;16942;53.196;6.592;2023-04-24T08:15:34;16.03;;;7.03;;
30127;SDS011;16942;53.196;6.592;2023-04-24T08:18:00;8.67;;;5.90;;
30127;SDS011;16942;53.196;6.592;2023-04-24T08:20:26;12.70;;;7.23;;
30127;SDS011;16942;53.196;6.592;2023-04-24T08:22:52;17.10;;;9.07;;
30127;SDS011;16942;53.196;6.592;2023-04-24T08:25:20;17.53;;;9.13;;
30127;SDS011;16942;53.196;6.592;2023-04-24T08:27:51;18.37;;;9.30;;
30127;SDS011;16942;53.196;6.592;2023-04-24T08:30:17;17.73;;;10.20;;
30127;SDS011;16942;53.196;6.592;2023-04-24T08:32:44;23.57;;;10.90;;
30127;SDS011;16942;53.196;6.592;2023-04-24T08:35:10;19.30;;;10.70;;
30127;SDS011;16942;53.196;6.592;2023-04-24T08:37:36;26.97;;;12.80;;
30127;SDS011;16942;53.196;6.592;2023-04-24T08:40:04;19.33;;;10.93;;
30127;SDS011;16942;53.196;6.592;2023-04-24T08:42:31;24.20;;;11.47;;
30127;SDS011;16942;53.196;6.592;2023-04-24T08:44:59;21.27;;;10.37;;
30127;SDS011;16942;53.196;6.592;2023-04-24T08:47:25;22.90;;;10.53;;
30127;SDS011;16942;53.196;6.592;2023-04-24T08:49:52;19.80;;;10.50;;
30127;SDS011;16942;53.196;6.592;2023-04-24T08:52:19;24.10;;;9.37;;
30127;SDS011;16942;53.196;6.592;2023-04-24T08:54:46;20.23;;;9.93;;
30127;SDS011;16942;53.196;6.592;2023-04-24T08:57:13;21.67;;;9.77;;
30127;SDS011;16942;53.196;6.592;2023-04-24T08:59:40;21.00;;;9.60;;
30127;SDS011;16942;53.196;6.592;2023-04-24T09:02:06;16.13;;;9.30;;
30127;SDS011;16942;53.196;6.592;2023-04-24T09:04:35;15.80;;;8.47;;
30127;SDS011;16942;53.196;6.592;2023-04-24T09:07:02;16.37;;;8.73;;
30127;SDS011;16942;53.196;6.592;2023-04-24T09:09:30;14.07;;;8.60;;
30127;SDS011;16942;53.196;6.592;2023-04-24T09:11:56;16.77;;;9.13;;
30127;SDS011;16942;53.196;6.592;2023-04-24T09:14:24;18.43;;;10.30;;
30127;SDS011;16942;53.196;6.592;2023-04-24T09:16:50;20.87;;;10.33;;
30127;SDS011;16942;53.196;6.592;2023-04-24T09:19:16;23.83;;;12.00;;
30127;SDS011;16942;53.196;6.592;2023-04-24T09:21:45;21.03;;;11.33;;
30127;SDS011;16942;53.196;6.592;2023-04-24T09:24:15;20.23;;;10.97;;
30127;SDS011;16942;53.196;6.592;2023-04-24T09:26:47;21.87;;;11.00;;
30127;SDS011;16942;53.196;6.592;2023-04-24T09:29:14;21.70;;;10.00;;
30127;SDS011;16942;53.196;6.592;2023-04-24T09:31:40;20.20;;;8.50;;
30127;SDS011;16942;53.196;6.592;2023-04-24T09:34:06;15.63;;;8.20;;
30127;SDS011;16942;53.196;6.592;2023-04-24T09:36:35;13.90;;;7.70;;
30127;SDS011;16942;53.196;6.592;2023-04-24T09:39:03;10.00;;;7.40;;
30127;SDS011;16942;53.196;6.592;2023-04-24T09:41:31;9.97;;;6.03;;
30127;SDS011;16942;53.196;6.592;2023-04-24T09:43:57;11.20;;;6.83;;
30127;SDS011;16942;53.196;6.592;2023-04-24T09:46:30;11.50;;;6.93;;
30127;SDS011;16942;53.196;6.592;2023-04-24T09:48:56;16.20;;;6.93;;
30127;SDS011;16942;53.196;6.592;2023-04-24T09:51:33;12.80;;;6.43;;
30127;SDS011;16942;53.196;6.592;2023-04-24T09:54:00;12.80;;;6.17;;
30127;SDS011;16942;53.196;6.592;2023-04-24T09:56:26;12.00;;;5.80;;
30127;SDS011;16942;53.196;6.592;2023-04-24T09:58:53;11.83;;;5.20;;
30127;SDS011;16942;53.196;6.592;2023-04-24T10:01:30;10.63;;;5.97;;
30127;SDS011;16942;53.196;6.592;2023-04-24T10:03:56;12.07;;;5.13;;
30127;SDS011;16942;53.196;6.592;2023-04-24T10:06:22;21.67;;;5.40;;
30127;SDS011;16942;53.196;6.592;2023-04-24T10:08:48;7.53;;;4.63;;
30127;SDS011;16942;53.196;6.592;2023-04-24T10:11:15;12.50;;;4.43;;
30127;SDS011;16942;53.196;6.592;2023-04-24T10:13:42;12.90;;;3.90;;
30127;SDS011;16942;53.196;6.592;2023-04-24T10:16:09;8.27;;;4.10;;
30127;SDS011;16942;53.196;6.592;2023-04-24T10:18:35;9.60;;;3.73;;
30127;SDS011;16942;53.196;6.592;2023-04-24T10:21:01;8.30;;;3.23;;
30127;SDS011;16942;53.196;6.592;2023-04-24T10:23:27;11.30;;;2.90;;
30127;SDS011;16942;53.196;6.592;2023-04-24T10:25:54;10.53;;;3.10;;
30127;SDS011;16942;53.196;6.592;2023-04-24T10:28:20;9.03;;;3.60;;
30127;SDS011;16942;53.196;6.592;2023-04-24T10:30:46;6.80;;;3.13;;
30127;SDS011;16942;53.196;6.592;2023-04-24T10:33:13;5.47;;;3.10;;
30127;SDS011;16942;53.196;6.592;2023-04-24T10:35:44;7.77;;;3.00;;
30127;SDS011;16942;53.196;6.592;2023-04-24T10:38:14;8.27;;;3.20;;
30127;SDS011;16942;53.196;6.592;2023-04-24T10:40:41;8.40;;;3.03;;
30127;SDS011;16942;53.196;6.592;2023-04-24T10:43:08;8.00;;;3.23;;
30127;SDS011;16942;53.196;6.592;2023-04-24T10:45:36;5.37;;;2.53;;
30127;SDS011;16942;53.196;6.592;2023-04-24T10:48:03;7.00;;;3.20;;
30127;SDS011;16942;53.196;6.592;2023-04-24T10:50:30;7.10;;;2.30;;
30127;SDS011;16942;53.196;6.592;2023-04-24T10:53:11;8.23;;;2.53;;
30127;SDS011;16942;53.196;6.592;2023-04-24T10:55:41;11.57;;;2.40;;
30127;SDS011;16942;53.196;6.592;2023-04-24T10:58:08;10.43;;;2.83;;
30127;SDS011;16942;53.196;6.592;2023-04-24T11:00:36;10.47;;;2.40;;
30127;SDS011;16942;53.196;6.592;2023-04-24T11:03:04;8.70;;;2.30;;
30127;SDS011;16942;53.196;6.592;2023-04-24T11:05:49;4.03;;;2.40;;
30127;SDS011;16942;53.196;6.592;2023-04-24T11:08:23;4.73;;;1.80;;
30127;SDS011;16942;53.196;6.592;2023-04-24T11:10:56;7.57;;;2.70;;
30127;SDS011;16942;53.196;6.592;2023-04-24T11:13:23;8.93;;;2.13;;
30127;SDS011;16942;53.196;6.592;2023-04-24T11:18:38;7.10;;;2.00;;
30127;SDS011;16942;53.196;6.592;2023-04-24T11:21:11;5.57;;;1.80;;
30127;SDS011;16942;53.196;6.592;2023-04-24T11:23:38;5.60;;;2.27;;
30127;SDS011;16942;53.196;6.592;2023-04-24T11:26:11;2.57;;;1.67;;
30127;SDS011;16942;53.196;6.592;2023-04-24T11:28:43;6.20;;;2.23;;
30127;SDS011;16942;53.196;6.592;2023-04-24T11:34:13;8.70;;;1.90;;
30127;SDS011;16942;53.196;6.592;2023-04-24T11:36:40;6.37;;;1.83;;
30127;SDS011;16942;53.196;6.592;2023-04-24T11:39:08;10.67;;;2.53;;
30127;SDS011;16942;53.196;6.592;2023-04-24T11:41:35;7.77;;;2.07;;
30127;SDS011;16942;53.196;6.592;2023-04-24T11:44:01;9.10;;;2.53;;
30127;SDS011;16942;53.196;6.592;2023-04-24T11:46:28;6.57;;;1.57;;
30127;SDS011;16942;53.196;6.592;2023-04-24T11:48:55;6.27;;;1.57;;
30127;SDS011;16942;53.196;6.592;2023-04-24T11:51:25;5.73;;;1.73;;
30127;SDS011;16942;53.196;6.592;2023-04-24T11:53:51;5.30;;;1.83;;
30127;SDS011;16942;53.196;6.592;2023-04-24T11:56:18;3.87;;;1.70;;
30127;SDS011;16942;53.196;6.592;2023-04-24T11:58:44;4.90;;;1.50;;
30127;SDS011;16942;53.196;6.592;2023-04-24T12:01:11;6.23;;;2.20;;
30127;SDS011;16942;53.196;6.592;2023-04-24T12:03:37;7.83;;;1.80;;
30127;SDS011;16942;53.196;6.592;2023-04-24T12:06:04;4.57;;;1.63;;
30127;SDS011;16942;53.196;6.592;2023-04-24T12:08:31;5.37;;;2.30;;
30127;SDS011;16942;53.196;6.592;2023-04-24T12:10:57;9.87;;;2.07;;
30127;SDS011;16942;53.196;6.592;2023-04-24T12:13:25;6.63;;;1.87;;
30127;SDS011;16942;53.196;6.592;2023-04-24T12:15:51;6.97;;;1.70;;
30127;SDS011;16942;53.196;6.592;2023-04-24T12:18:18;7.30;;;2.23;;
30127;SDS011;16942;53.196;6.592;2023-04-24T12:20:44;4.93;;;1.77;;
30127;SDS011;16942;53.196;6.592;2023-04-24T12:23:10;6.17;;;1.60;;
30127;SDS011;16942;53.196;6.592;2023-04-24T12:25:36;6.30;;;1.63;;
30127;SDS011;16942;53.196;6.592;2023-04-24T12:30:35;3.67;;;1.13;;
30127;SDS011;16942;53.196;6.592;2023-04-24T12:33:03;7.40;;;2.17;;
30127;SDS011;16942;53.196;6.592;2023-04-24T12:35:30;10.57;;;1.83;;
30127;SDS011;16942;53.196;6.592;2023-04-24T12:38:07;4.63;;;1.47;;
30127;SDS011;16942;53.196;6.592;2023-04-24T12:40:33;6.13;;;2.03;;
30127;SDS011;16942;53.196;6.592;2023-04-24T12:42:59;3.10;;;1.20;;
30127;SDS011;16942;53.196;6.592;2023-04-24T12:45:25;7.23;;;1.50;;
30127;SDS011;16942;53.196;6.592;2023-04-24T12:47:52;3.03;;;0.93;;
30127;SDS011;16942;53.196;6.592;2023-04-24T12:50:19;2.60;;;0.80;;
30127;SDS011;16942;53.196;6.592;2023-04-24T12:52:45;3.03;;;1.10;;
30127;SDS011;16942;53.196;6.592;2023-04-24T12:55:11;3.90;;;1.63;;
30127;SDS011;16942;53.196;6.592;2023-04-24T12:57:38;2.33;;;0.87;;
30127;SDS011;16942;53.196;6.592;2023-04-24T13:00:05;2.93;;;1.10;;
30127;SDS011;16942;53.196;6.592;2023-04-24T13:02:31;3.20;;;1.00;;
30127;SDS011;16942;53.196;6.592;2023-04-24T13:04:58;3.37;;;1.60;;
30127;SDS011;16942;53.196;6.592;2023-04-24T13:07:24;4.27;;;1.43;;
30127;SDS011;16942;53.196;6.592;2023-04-24T13:09:50;10.10;;;1.30;;
30127;SDS011;16942;53.196;6.592;2023-04-24T13:12:17;6.83;;;1.53;;
30127;SDS011;16942;53.196;6.592;2023-04-24T13:14:43;3.87;;;1.17;;
30127;SDS011;16942;53.196;6.592;2023-04-24T13:17:09;7.30;;;1.97;;
30127;SDS011;16942;53.196;6.592;2023-04-24T13:19:37;7.83;;;1.27;;
30127;SDS011;16942;53.196;6.592;2023-04-24T13:22:03;5.73;;;1.33;;
30127;SDS011;16942;53.196;6.592;2023-04-24T13:24:29;4.87;;;1.20;;
30127;SDS011;16942;53.196;6.592;2023-04-24T13:26:56;7.87;;;1.40;;
30127;SDS011;16942;53.196;6.592;2023-04-24T13:29:22;5.87;;;1.37;;
30127;SDS011;16942;53.196;6.592;2023-04-24T13:31:51;7.07;;;1.43;;
30127;SDS011;16942;53.196;6.592;2023-04-24T13:34:19;4.20;;;1.40;;
30127;SDS011;16942;53.196;6.592;2023-04-24T13:36:45;11.17;;;1.50;;
30127;SDS011;16942;53.196;6.592;2023-04-24T13:39:11;10.13;;;1.30;;
30127;SDS011;16942;53.196;6.592;2023-04-24T13:41:37;3.57;;;1.10;;
30127;SDS011;16942;53.196;6.592;2023-04-24T13:44:04;4.63;;;1.03;;
30127;SDS011;16942;53.196;6.592;2023-04-24T13:46:30;1.80;;;0.80;;
30127;SDS011;16942;53.196;6.592;2023-04-24T13:48:56;2.73;;;0.60;;
30127;SDS011;16942;53.196;6.592;2023-04-24T13:51:23;2.63;;;1.00;;
30127;SDS011;16942;53.196;6.592;2023-04-24T13:53:51;7.17;;;0.57;;
30127;SDS011;16942;53.196;6.592;2023-04-24T13:56:17;2.60;;;0.80;;
30127;SDS011;16942;53.196;6.592;2023-04-24T13:58:43;7.03;;;0.80;;
30127;SDS011;16942;53.196;6.592;2023-04-24T14:01:09;2.53;;;0.63;;
30127;SDS011;16942;53.196;6.592;2023-04-24T14:03:37;2.13;;;0.70;;
30127;SDS011;16942;53.196;6.592;2023-04-24T14:06:03;7.70;;;1.43;;
30127;SDS011;16942;53.196;6.592;2023-04-24T14:08:29;3.50;;;0.87;;
30127;SDS011;16942;53.196;6.592;2023-04-24T14:10:55;7.07;;;1.40;;
30127;SDS011;16942;53.196;6.592;2023-04-24T14:13:21;4.53;;;1.30;;
30127;SDS011;16942;53.196;6.592;2023-04-24T14:15:47;5.60;;;1.40;;
30127;SDS011;16942;53.196;6.592;2023-04-24T14:18:13;4.10;;;1.57;;
30127;SDS011;16942;53.196;6.592;2023-04-24T14:20:39;7.43;;;2.40;;
30127;SDS011;16942;53.196;6.592;2023-04-24T14:23:05;7.20;;;1.50;;
30127;SDS011;16942;53.196;6.592;2023-04-24T14:25:31;5.50;;;1.67;;
30127;SDS011;16942;53.196;6.592;2023-04-24T14:27:57;10.80;;;2.07;;
30127;SDS011;16942;53.196;6.592;2023-04-24T14:30:23;5.80;;;1.93;;
30127;SDS011;16942;53.196;6.592;2023-04-24T14:32:49;9.97;;;2.30;;
30127;SDS011;16942;53.196;6.592;2023-04-24T14:35:15;7.60;;;2.10;;
30127;SDS011;16942;53.196;6.592;2023-04-24T14:37:41;5.57;;;1.80;;
30127;SDS011;16942;53.196;6.592;2023-04-24T14:40:07;9.10;;;2.10;;
30127;SDS011;16942;53.196;6.592;2023-04-24T14:42:34;8.37;;;2.33;;
30127;SDS011;16942;53.196;6.592;2023-04-24T14:45:00;5.23;;;1.90;;
30127;SDS011;16942;53.196;6.592;2023-04-24T14:47:27;4.23;;;1.90;;
30127;SDS011;16942;53.196;6.592;2023-04-24T14:49:54;8.10;;;2.00;;